Time;durP1;ratioP1;P1;durP2;ratioP2;P2;SDS_P1;SDS_P2;PMS_P1;PMS_P2;Temp;Humidity;BMP_temperature;BMP_pressure;BME280_temperature;BME280_humidity;BME280_pressure;Samples;Min_cycle;Max_cycle;Signal;HPM_P1;HPM_P2
2022/04/23 00:01:24;;;;;;;5.65;4.93;;;;;;;9.85;nan;100508.59;5032255;28;20607;-48
2022/04/23 00:03:49;;;;;;;8.93;5.10;;;;;;;9.92;nan;100524.13;5032755;28;20034;-52
2022/04/23 00:06:15;;;;;;;6.05;5.30;;;;;;;9.87;nan;100501.50;5047204;28;20099;-47
2022/04/23 00:08:40;;;;;;;5.15;4.63;;;;;;;9.60;nan;100448.13;5032204;28;20040;-51
2022/04/23 00:11:05;;;;;;;5.65;4.82;;;;;;;9.59;nan;100455.16;5032302;28;20037;-49
2022/04/23 00:13:30;;;;;;;6.47;5.63;;;;;;;9.65;nan;100446.19;5031061;28;20060;-49
2022/04/23 00:15:56;;;;;;;5.45;4.95;;;;;;;9.97;nan;100522.19;5032837;28;20041;-52
2022/04/23 00:18:21;;;;;;;6.57;5.22;;;;;;;10.04;nan;100514.94;5047838;28;20118;-51
2022/04/23 00:20:46;;;;;;;6.05;5.13;;;;;;;10.05;nan;100511.38;5032331;28;20453;-48
2022/04/23 00:23:13;;;;;;;6.07;5.07;;;;;;;9.71;nan;100453.00;5031914;28;20029;-50
2022/04/23 00:25:39;;;;;;;5.93;5.25;;;;;;;9.85;nan;100479.66;5032321;28;20033;-52
2022/04/23 00:28:04;;;;;;;6.25;5.65;;;;;;;10.12;nan;100513.75;5032529;28;20118;-51
2022/04/23 00:30:30;;;;;;;6.65;5.75;;;;;;;10.10;nan;100520.81;5032190;28;20045;-48
2022/04/23 00:33:02;;;;;;;7.43;6.07;;;;;;;9.87;nan;100476.06;5032269;28;20476;-53
2022/04/23 00:35:28;;;;;;;6.10;5.50;;;;;;;10.02;nan;100500.97;5031944;28;20080;-51
2022/04/23 00:37:53;;;;;;;8.57;5.95;;;;;;;9.69;nan;100442.53;5030949;28;20037;-49
2022/04/23 00:40:20;;;;;;;6.90;5.80;;;;;;;9.98;nan;100505.47;5032053;28;20068;-47
2022/04/23 00:42:47;;;;;;;8.32;6.60;;;;;;;10.01;nan;100507.97;5047230;28;20068;-53
2022/04/23 00:45:13;;;;;;;6.82;5.90;;;;;;;9.63;nan;100436.66;5030370;28;20033;-47
2022/04/23 00:47:38;;;;;;;8.10;6.00;;;;;;;9.98;nan;100523.03;5031813;28;20033;-46
2022/04/23 00:50:04;;;;;;;6.45;5.85;;;;;;;9.94;nan;100503.00;5031651;28;20049;-50
2022/04/23 00:52:30;;;;;;;9.38;6.25;;;;;;;9.93;nan;100510.03;5030756;28;20039;-53
2022/04/23 00:54:56;;;;;;;6.97;5.90;;;;;;;9.57;nan;100435.09;5032143;28;20457;-51
2022/04/23 00:57:21;;;;;;;8.10;6.78;;;;;;;9.93;nan;100493.41;5031889;28;20033;-51
2022/04/23 00:59:49;;;;;;;9.55;6.80;;;;;;;9.55;nan;100429.88;5047076;28;20037;-53
2022/04/23 01:02:15;;;;;;;7.78;6.40;;;;;;;9.63;nan;100444.53;5047126;28;20465;-50
2022/04/23 01:04:40;;;;;;;7.47;6.70;;;;;;;9.91;nan;100493.47;5031797;28;20033;-47
2022/04/23 01:07:06;;;;;;;7.00;6.30;;;;;;;9.94;nan;100497.75;5031853;28;20514;-55
2022/04/23 01:09:31;;;;;;;7.75;6.75;;;;;;;9.49;nan;100426.59;5030444;28;20037;-51
2022/04/23 01:11:59;;;;;;;8.52;7.45;;;;;;;9.88;nan;100484.81;5031798;28;20036;-52
2022/04/23 01:14:25;;;;;;;10.25;7.05;;;;;;;9.86;nan;100486.66;5046956;28;20059;-51
2022/04/23 01:16:50;;;;;;;8.77;7.30;;;;;;;9.57;nan;100435.94;5031808;28;20473;-55
2022/04/23 01:19:15;;;;;;;9.77;8.02;;;;;;;9.85;nan;100484.94;5031265;28;20411;-52
2022/04/23 01:21:40;;;;;;;8.82;7.32;;;;;;;9.84;nan;100484.06;5031759;28;20091;-54
2022/04/23 01:24:06;;;;;;;8.13;7.30;;;;;;;9.86;nan;100486.66;5031884;28;20117;-51
2022/04/23 01:26:32;;;;;;;9.07;7.85;;;;;;;9.85;nan;100495.44;5031467;28;20034;-53
2022/04/23 01:28:57;;;;;;;9.65;8.40;;;;;;;9.81;nan;100492.06;5031627;28;20034;-47
2022/04/23 01:31:23;;;;;;;9.63;8.02;;;;;;;9.38;nan;100413.00;5031498;28;20030;-54
2022/04/23 01:33:49;;;;;;;9.05;7.60;;;;;;;9.47;nan;100431.94;5046814;28;20146;-49
2022/04/23 01:36:14;;;;;;;10.20;8.93;;;;;;;9.76;nan;100494.00;5031709;28;20042;-49
2022/04/23 01:38:43;;;;;;;10.35;9.20;;;;;;;9.42;nan;100436.50;5047162;28;20102;-54
2022/04/23 01:41:09;;;;;;;11.25;8.48;;;;;;;9.34;nan;100416.66;5031605;28;20030;-54
2022/04/23 01:43:34;;;;;;;12.05;9.57;;;;;;;9.72;nan;100494.16;5031478;28;20095;-51
2022/04/23 01:46:00;;;;;;;10.82;9.05;;;;;;;9.68;nan;100489.91;5046960;28;20473;-48
2022/04/23 01:48:25;;;;;;;11.15;9.32;;;;;;;9.34;nan;100432.41;5031504;28;20042;-54
2022/04/23 01:50:51;;;;;;;10.20;8.90;;;;;;;8.93;nan;100365.53;5046771;28;20034;-51
2022/04/23 01:53:18;;;;;;;10.68;9.10;;;;;;;9.69;nan;100489.00;5031623;28;20026;-50
2022/04/23 01:55:43;;;;;;;10.32;9.23;;;;;;;9.65;nan;100492.63;5031120;28;20040;-55
2022/04/23 01:58:08;;;;;;;11.93;8.93;;;;;;;9.32;nan;100435.06;5050328;28;20037;-54
2022/04/23 02:00:34;;;;;;;13.00;10.05;;;;;;;9.65;nan;100490.00;5050022;28;20556;-54
2022/04/23 02:02:59;;;;;;;13.55;9.95;;;;;;;9.61;nan;100481.38;5034439;28;20045;-50
2022/04/23 02:05:24;;;;;;;11.77;10.63;;;;;;;9.56;nan;100489.41;5034322;28;20135;-55
2022/04/23 02:07:50;;;;;;;13.15;9.40;;;;;;;9.52;nan;100490.44;5033733;28;20068;-47
2022/04/23 02:10:16;;;;;;;15.10;10.32;;;;;;;9.45;nan;100475.78;5033400;28;20041;-49
2022/04/23 02:12:42;;;;;;;14.68;10.52;;;;;;;9.54;nan;100487.75;5050295;28;20124;-54
2022/04/23 02:15:12;;;;;;;12.75;10.15;;;;;;;9.19;nan;100417.16;5049907;28;20472;-51
2022/04/23 02:17:40;;;;;;;12.63;11.32;;;;;;;9.48;nan;100475.69;5034132;28;20415;-54
2022/04/23 02:20:14;;;;;;;12.38;11.07;;;;;;;9.49;nan;100493.16;5034563;28;20037;-57
2022/04/23 02:22:40;;;;;;;14.70;11.70;;;;;;;9.50;nan;100478.25;5034363;28;20042;-52
2022/04/23 02:25:06;;;;;;;12.45;10.93;;;;;;;9.42;nan;100496.91;5033380;28;20036;-50
2022/04/23 02:27:48;;;;;;;12.57;11.27;;;;;;;9.44;nan;100487.19;5034449;28;20038;-51
2022/04/23 02:30:18;;;;;;;12.18;10.98;;;;;;;9.42;nan;100498.66;5034261;28;20042;-52
2022/04/23 02:32:44;;;;;;;16.60;11.32;;;;;;;9.42;nan;100486.41;5033346;28;20056;-55
2022/04/23 02:35:11;;;;;;;11.55;10.40;;;;;;;9.38;nan;100486.53;5034215;28;20057;-51
2022/04/23 02:37:36;;;;;;;13.65;12.20;;;;;;;9.27;nan;100479.03;5034412;28;20392;-53
2022/04/23 02:40:06;;;;;;;12.30;11.20;;;;;;;9.32;nan;100481.47;5034178;28;20033;-49
2022/04/23 02:42:33;;;;;;;13.00;11.70;;;;;;;9.30;nan;100481.53;5032625;28;20042;-52
2022/04/23 02:45:01;;;;;;;13.63;12.23;;;;;;;9.35;nan;100482.25;5034597;28;20103;-52
2022/04/23 02:47:27;;;;;;;13.70;12.23;;;;;;;9.26;nan;100460.66;5049303;28;20040;-56
2022/04/23 02:49:53;;;;;;;14.18;12.70;;;;;;;9.41;nan;100492.56;5032926;28;20064;-48
2022/04/23 02:52:18;;;;;;;14.02;12.63;;;;;;;9.44;nan;100489.81;5034011;28;20069;-49
2022/04/23 02:54:43;;;;;;;13.73;12.43;;;;;;;9.40;nan;100475.06;5033962;28;20045;-52
2022/04/23 02:57:09;;;;;;;14.90;12.65;;;;;;;9.16;nan;100431.25;5033674;28;20072;-51
2022/04/23 02:59:34;;;;;;;15.27;12.57;;;;;;;9.21;nan;100425.84;5033424;28;20038;-54
2022/04/23 03:01:59;;;;;;;17.08;13.93;;;;;;;9.23;nan;100432.75;5048714;28;20052;-48
2022/04/23 03:04:25;;;;;;;14.98;12.90;;;;;;;9.61;nan;100492.75;5033699;28;20040;-54
2022/04/23 03:06:50;;;;;;;13.80;12.35;;;;;;;9.22;nan;100425.81;5032145;28;20033;-52
2022/04/23 03:09:15;;;;;;;14.63;13.05;;;;;;;9.52;nan;100489.56;5033483;28;20045;-53
2022/04/23 03:11:40;;;;;;;15.13;13.65;;;;;;;9.11;nan;100425.28;5033339;28;20396;-49
2022/04/23 03:14:06;;;;;;;15.52;13.93;;;;;;;9.34;nan;100488.41;5033671;28;20038;-49
2022/04/23 03:16:31;;;;;;;14.75;13.25;;;;;;;9.04;nan;100437.75;5033524;28;20061;-51
2022/04/23 03:18:57;;;;;;;16.88;14.40;;;;;;;9.25;nan;100470.31;5033554;28;20408;-52
2022/04/23 03:21:22;;;;;;;17.85;15.55;;;;;;;9.27;nan;100491.28;5033316;28;20501;-50
2022/04/23 03:23:48;;;;;;;16.58;14.80;;;;;;;9.29;nan;100492.09;5033247;28;20112;-50
2022/04/23 03:26:13;;;;;;;18.25;14.82;;;;;;;9.22;nan;100486.19;5033215;28;20045;-50
2022/04/23 03:28:39;;;;;;;17.58;15.18;;;;;;;9.15;nan;100476.78;5033145;28;20038;-50
2022/04/23 03:31:04;;;;;;;17.30;15.20;;;;;;;9.17;nan;100488.09;5048616;28;20033;-50
2022/04/23 03:33:30;;;;;;;17.98;16.17;;;;;;;9.12;nan;100489.16;5033121;28;20041;-51
2022/04/23 03:35:55;;;;;;;18.17;16.27;;;;;;;8.76;nan;100428.16;5031937;28;20412;-54
2022/04/23 03:38:21;;;;;;;18.30;16.42;;;;;;;9.07;nan;100476.19;5048318;28;20046;-56
2022/04/23 03:40:53;;;;;;;18.83;16.15;;;;;;;8.91;nan;100435.56;5032786;28;20041;-53
2022/04/23 03:43:19;;;;;;;18.30;16.50;;;;;;;9.13;nan;100467.25;5031867;28;20033;-56
2022/04/23 03:45:44;;;;;;;19.58;17.10;;;;;;;9.20;nan;100474.00;5033166;28;20469;-56
2022/04/23 03:48:09;;;;;;;18.92;16.92;;;;;;;9.27;nan;100479.03;5048637;28;20073;-54
2022/04/23 03:50:35;;;;;;;19.23;17.23;;;;;;;9.33;nan;100489.31;5033316;28;20395;-57
2022/04/23 03:53:00;;;;;;;20.33;18.02;;;;;;;9.06;nan;100424.56;5033061;28;20041;-55
2022/04/23 03:55:26;;;;;;;19.65;17.10;;;;;;;9.36;nan;100472.59;5033080;28;20043;-56
2022/04/23 03:57:53;;;;;;;20.17;17.98;;;;;;;9.29;nan;100466.69;5032742;28;20047;-51
2022/04/23 04:00:22;;;;;;;20.77;18.60;;;;;;;8.97;nan;100420.47;5031353;28;20128;-54
2022/04/23 04:02:49;;;;;;;20.38;18.27;;;;;;;9.17;nan;100455.72;5032780;28;20033;-52
2022/04/23 04:05:14;;;;;;;23.38;18.60;;;;;;;9.11;nan;100450.69;5032573;28;20039;-55
2022/04/23 04:07:44;;;;;;;20.85;18.70;;;;;;;9.15;nan;100468.03;5033036;28;20033;-53
2022/04/23 04:10:11;;;;;;;23.95;20.58;;;;;;;8.76;nan;100396.69;5032293;28;20121;-55
2022/04/23 04:12:37;;;;;;;21.70;19.38;;;;;;;9.12;nan;100452.38;5032685;28;20048;-54
2022/04/23 04:15:03;;;;;;;23.45;19.77;;;;;;;9.10;nan;100465.59;5032678;28;20088;-54
2022/04/23 04:17:28;;;;;;;22.63;19.05;;;;;;;9.09;nan;100457.75;5032404;28;20049;-51
2022/04/23 04:19:54;;;;;;;22.70;20.40;;;;;;;9.03;nan;100454.41;5032129;28;20538;-52
2022/04/23 04:22:21;;;;;;;23.45;20.50;;;;;;;8.66;nan;100385.63;5032082;28;20136;-55
2022/04/23 04:24:46;;;;;;;23.73;21.05;;;;;;;8.93;nan;100421.47;5030886;28;20133;-49
2022/04/23 04:27:12;;;;;;;25.35;22.33;;;;;;;8.74;nan;100393.25;5031020;28;20116;-49
2022/04/23 04:29:37;;;;;;;23.23;20.73;;;;;;;8.98;nan;100431.84;5032217;28;20040;-55
2022/04/23 04:32:03;;;;;;;24.27;21.70;;;;;;;9.05;nan;100442.09;5032346;28;20476;-54
2022/04/23 04:34:32;;;;;;;26.67;22.20;;;;;;;8.73;nan;100383.66;5032125;28;20034;-49
2022/04/23 04:37:03;;;;;;;26.60;23.90;;;;;;;9.04;nan;100435.13;5032127;28;20034;-52
2022/04/23 04:39:28;;;;;;;24.17;21.67;;;;;;;8.76;nan;100381.78;5031994;28;20033;-53
2022/04/23 04:41:53;;;;;;;26.55;23.75;;;;;;;9.13;nan;100452.34;5032425;28;20053;-51
2022/04/23 04:44:19;;;;;;;26.30;22.17;;;;;;;8.79;nan;100372.97;5031994;28;20045;-55
2022/04/23 04:46:44;;;;;;;24.92;22.38;;;;;;;9.04;nan;100423.78;5032120;28;20022;-56
2022/04/23 04:49:09;;;;;;;24.40;21.80;;;;;;;9.15;nan;100441.78;5032084;28;20041;-54
2022/04/23 04:51:36;;;;;;;25.48;22.60;;;;;;;9.04;nan;100440.38;5047309;28;20037;-55
2022/04/23 04:54:02;;;;;;;25.73;22.95;;;;;;;9.04;nan;100435.13;5031970;28;20033;-53
2022/04/23 04:56:28;;;;;;;26.38;23.23;;;;;;;9.08;nan;100446.38;5047349;28;20034;-53
2022/04/23 04:58:53;;;;;;;26.70;24.02;;;;;;;9.08;nan;100453.41;5032053;28;20037;-54
2022/04/23 05:01:18;;;;;;;26.52;23.73;;;;;;;9.08;nan;100450.78;5031686;28;20504;-55
2022/04/23 05:03:44;;;;;;;25.52;22.70;;;;;;;8.71;nan;100391.59;5031758;28;20057;-52
2022/04/23 05:06:09;;;;;;;27.38;23.60;;;;;;;9.09;nan;100455.13;5031711;28;20065;-52
2022/04/23 05:08:36;;;;;;;29.92;23.58;;;;;;;9.14;nan;100461.06;5031555;28;20038;-53
2022/04/23 05:11:02;;;;;;;26.90;24.00;;;;;;;8.77;nan;100401.88;5032054;28;20466;-52
2022/04/23 05:13:28;;;;;;;26.38;23.70;;;;;;;9.17;nan;100468.84;5031983;28;20061;-56
2022/04/23 05:15:53;;;;;;;26.00;23.33;;;;;;;8.73;nan;100391.53;5031785;28;20076;-53
2022/04/23 05:18:19;;;;;;;27.70;24.70;;;;;;;9.19;nan;100454.78;5031830;28;20046;-54
2022/04/23 05:20:44;;;;;;;26.98;24.17;;;;;;;8.95;nan;100417.06;5031838;28;20073;-51
2022/04/23 05:23:09;;;;;;;27.70;24.88;;;;;;;9.18;nan;100446.94;5046941;28;20088;-49
2022/04/23 05:25:35;;;;;;;27.02;24.17;;;;;;;8.86;nan;100396.34;5030411;28;20037;-52
2022/04/23 05:28:00;;;;;;;29.17;24.38;;;;;;;9.21;nan;100468.72;5031670;28;20060;-54
2022/04/23 05:30:26;;;;;;;27.10;24.23;;;;;;;9.29;nan;100461.44;5032288;28;20044;-55
2022/04/23 05:32:51;;;;;;;26.05;23.33;;;;;;;9.34;nan;100470.00;5035283;28;20038;-50
2022/04/23 05:35:16;;;;;;;27.90;24.90;;;;;;;9.38;nan;100465.53;5035461;28;20045;-54
2022/04/23 05:37:42;;;;;;;26.42;23.70;;;;;;;9.04;nan;100408.88;5035079;28;20052;-56
2022/04/23 05:40:07;;;;;;;30.67;25.75;;;;;;;9.48;nan;100465.19;5035802;28;20033;-52
2022/04/23 05:42:33;;;;;;;29.13;26.15;;;;;;;9.54;nan;100466.75;5035277;28;20492;-50
2022/04/23 05:44:58;;;;;;;26.95;24.25;;;;;;;9.61;nan;100470.84;5035244;28;20030;-56
2022/04/23 05:47:24;;;;;;;28.80;25.38;;;;;;;9.68;nan;100466.25;5034883;28;20037;-56
2022/04/23 05:49:49;;;;;;;25.80;23.17;;;;;;;9.73;nan;100473.06;5033868;28;20393;-55
2022/04/23 05:52:14;;;;;;;28.02;23.95;;;;;;;9.83;nan;100469.22;5034787;28;20034;-55
2022/04/23 05:54:40;;;;;;;28.30;25.45;;;;;;;9.55;nan;100414.13;5035089;28;20073;-54
2022/04/23 05:57:05;;;;;;;27.05;24.17;;;;;;;10.00;nan;100480.00;5035187;28;20084;-57
2022/04/23 05:59:31;;;;;;;29.52;25.60;;;;;;;10.08;nan;100479.72;5034872;28;20027;-52
2022/04/23 06:01:57;;;;;;;26.15;23.55;;;;;;;10.10;nan;100486.63;5034629;28;20120;-58
2022/04/23 06:04:23;;;;;;;26.85;24.05;;;;;;;10.16;nan;100469.78;5033360;28;20033;-58
2022/04/23 06:06:49;;;;;;;27.23;24.38;;;;;;;9.93;nan;100433.78;5033183;28;20033;-53
2022/04/23 06:09:14;;;;;;;25.95;23.25;;;;;;;10.32;nan;100483.25;5049989;28;20446;-55
2022/04/23 06:11:39;;;;;;;28.92;24.30;;;;;;;10.10;nan;100438.44;5050243;28;20401;-51
2022/04/23 06:14:05;;;;;;;24.33;21.88;;;;;;;10.48;nan;100484.38;5034741;28;20388;-55
2022/04/23 06:16:30;;;;;;;23.27;20.98;;;;;;;10.20;nan;100433.72;5034767;28;20077;-56
2022/04/23 06:18:55;;;;;;;25.05;22.50;;;;;;;10.32;nan;100438.53;5034535;28;20037;-54
2022/04/23 06:21:21;;;;;;;24.33;21.90;;;;;;;10.74;nan;100484.25;5034324;28;20092;-54
2022/04/23 06:23:46;;;;;;;24.23;21.63;;;;;;;10.47;nan;100416.91;5034307;28;20450;-51
2022/04/23 06:26:12;;;;;;;24.10;21.67;;;;;;;10.89;nan;100469.63;5034576;28;20536;-50
2022/04/23 06:28:37;;;;;;;25.02;22.38;;;;;;;10.96;nan;100471.97;5033211;28;20030;-52
2022/04/23 06:31:02;;;;;;;23.05;20.85;;;;;;;11.03;nan;100478.72;5034483;28;20068;-57
2022/04/23 06:33:28;;;;;;;22.83;20.38;;;;;;;10.76;nan;100411.38;5034201;28;20037;-54
2022/04/23 06:35:53;;;;;;;23.55;21.25;;;;;;;11.21;nan;100477.09;5033986;28;20045;-51
2022/04/23 06:38:18;;;;;;;25.10;21.15;;;;;;;11.34;nan;100474.84;5033855;28;20037;-51
2022/04/23 06:40:44;;;;;;;21.95;19.75;;;;;;;11.45;nan;100491.06;5033889;28;20037;-47
2022/04/23 06:43:09;;;;;;;21.25;19.15;;;;;;;11.51;nan;100486.41;5032580;28;20025;-51
2022/04/23 06:45:34;;;;;;;27.40;19.50;;;;;;;11.36;nan;100439.59;5033908;28;20091;-50
2022/04/23 06:48:04;;;;;;;22.23;20.02;;;;;;;11.70;nan;100484.72;5049000;28;20527;-51
2022/04/23 06:50:31;;;;;;;23.55;20.55;;;;;;;11.41;nan;100408.66;5032245;28;20132;-52
2022/04/23 06:52:57;;;;;;;21.05;18.75;;;;;;;11.59;nan;100415.75;5034011;28;20401;-53
2022/04/23 06:55:22;;;;;;;19.90;17.95;;;;;;;11.96;nan;100474.84;5049224;28;20035;-54
2022/04/23 06:57:49;;;;;;;19.73;17.85;;;;;;;12.18;nan;100502.84;5034005;28;20120;-56
2022/04/23 07:00:14;;;;;;;19.45;17.63;;;;;;;12.00;nan;100429.78;5048476;28;20443;-52
2022/04/23 07:02:40;;;;;;;18.42;16.65;;;;;;;12.46;nan;100473.47;5033344;28;20094;-55
2022/04/23 07:05:06;;;;;;;19.42;17.52;;;;;;;12.65;nan;100481.38;5033323;28;20121;-54
2022/04/23 07:07:33;;;;;;;19.33;17.35;;;;;;;13.06;nan;100490.84;5033289;28;20491;-51
2022/04/23 07:09:58;;;;;;;18.42;15.50;;;;;;;13.33;nan;100483.41;5033334;28;20032;-49
2022/04/23 07:12:24;;;;;;;17.50;15.80;;;;;;;13.69;nan;100451.63;5048601;28;20034;-55
2022/04/23 07:14:49;;;;;;;16.38;14.68;;;;;;;14.06;nan;100502.56;5048654;28;20029;-55
2022/04/23 07:17:14;;;;;;;16.23;14.73;;;;;;;14.03;nan;100435.69;5033233;28;20404;-51
2022/04/23 07:19:40;;;;;;;16.77;15.18;;;;;;;14.60;nan;100500.59;5033196;28;20481;-56
2022/04/23 07:22:07;;;;;;;16.58;14.98;;;;;;;14.49;nan;100439.41;5031760;28;20054;-58
2022/04/23 07:24:32;;;;;;;16.45;14.80;;;;;;;14.83;nan;100502.81;5033400;28;20037;-52
2022/04/23 07:26:59;;;;;;;15.70;14.20;;;;;;;15.15;nan;100491.28;5033258;28;20029;-56
2022/04/23 07:29:24;;;;;;;14.50;13.15;;;;;;;15.66;nan;100492.78;5033093;28;20116;-53
2022/04/23 07:31:50;;;;;;;15.77;14.27;;;;;;;16.00;nan;100507.56;5031773;28;20083;-55
2022/04/23 07:39:44;;;;;;;15.93;14.35;;;;;;;15.98;nan;100466.13;5033214;28;20122;-49
2022/04/23 07:42:10;;;;;;;14.82;13.32;;;;;;;15.93;nan;100447.84;5032819;28;20539;-51
2022/04/23 07:44:36;;;;;;;15.30;13.77;;;;;;;16.35;nan;100500.09;5048149;28;20125;-58
2022/04/23 07:47:04;;;;;;;15.88;14.25;;;;;;;16.45;nan;100497.75;5031670;28;20048;-57
2022/04/23 07:49:30;;;;;;;14.75;13.43;;;;;;;16.48;nan;100457.69;5047468;28;20068;-49
2022/04/23 07:51:55;;;;;;;15.38;13.40;;;;;;;16.97;nan;100498.84;5048131;28;20026;-50
2022/04/23 07:54:21;;;;;;;14.95;13.63;;;;;;;16.70;nan;100458.06;5048252;28;20033;-51
2022/04/23 07:56:47;;;;;;;14.52;13.10;;;;;;;17.17;nan;100455.00;5032786;28;20249;-55
2022/04/23 07:59:12;;;;;;;15.65;13.50;;;;;;;17.10;nan;100483.84;5032478;28;20041;-54
2022/04/23 08:01:38;;;;;;;15.48;14.07;;;;;;;17.28;nan;100498.56;5032364;28;20037;-50
2022/04/23 08:04:03;;;;;;;15.32;13.98;;;;;;;17.07;nan;100468.09;5032732;28;20044;-58
2022/04/23 08:06:30;;;;;;;15.00;13.43;;;;;;;17.10;nan;100490.97;5031983;28;20387;-50
2022/04/23 08:08:55;;;;;;;15.70;14.10;;;;;;;17.44;nan;100506.41;5047513;28;20038;-52
2022/04/23 08:11:22;;;;;;;14.65;13.25;;;;;;;17.91;nan;100504.13;5032349;28;20033;-51
2022/04/23 08:13:50;;;;;;;14.95;13.57;;;;;;;17.97;nan;100487.75;5032270;28;20477;-50
2022/04/23 08:16:15;;;;;;;14.30;13.10;;;;;;;18.02;nan;100487.41;5032144;28;20137;-58
2022/04/23 08:18:40;;;;;;;16.35;14.68;;;;;;;17.91;nan;100410.94;5032203;28;20042;-51
2022/04/23 08:21:06;;;;;;;14.07;12.77;;;;;;;18.63;nan;100483.16;5031766;28;20115;-49
2022/04/23 08:23:33;;;;;;;15.23;12.90;;;;;;;19.10;nan;100477.91;5046247;28;20535;-52
2022/04/23 08:26:02;;;;;;;15.07;13.73;;;;;;;19.52;nan;100481.94;5031965;28;20495;-49
2022/04/23 08:31:25;;;;;;;15.13;13.73;;;;;;;18.12;nan;100475.19;5019664;28;20425;-55
2022/04/23 08:34:00;;;;;;;14.63;13.23;;;;;;;18.33;nan;100441.69;5032642;28;20124;-58
2022/04/23 08:36:27;;;;;;;22.60;14.60;;;;;;;18.44;nan;100443.63;5032049;28;20040;-50
2022/04/23 08:38:56;;;;;;;14.25;12.95;;;;;;;18.70;nan;100474.63;5031938;28;20030;-52
2022/04/23 08:41:35;;;;;;;14.77;13.35;;;;;;;18.50;nan;100472.53;5032012;28;20473;-51
2022/04/23 08:44:05;;;;;;;14.57;12.85;;;;;;;18.95;nan;100461.22;5031116;28;20033;-57
2022/04/23 08:46:38;;;;;;;15.20;13.70;;;;;;;19.04;nan;100489.91;5031808;28;20532;-53
2022/04/23 08:49:13;;;;;;;15.02;13.73;;;;;;;18.45;nan;100477.28;5030479;28;20108;-52
2022/04/23 08:51:40;;;;;;;15.15;13.77;;;;;;;19.02;nan;100489.16;5030575;28;20189;-52
2022/04/23 08:54:10;;;;;;;15.18;13.77;;;;;;;19.56;nan;100484.25;5030234;28;20033;-57
2022/04/23 08:56:38;;;;;;;14.45;13.07;;;;;;;19.98;nan;100481.97;5031903;28;20029;-53
2022/04/23 08:59:04;;;;;;;15.05;13.60;;;;;;;19.95;nan;100479.53;5047218;28;20074;-56
2022/04/23 09:01:31;;;;;;;14.43;13.23;;;;;;;19.44;nan;100479.00;5030416;28;20042;-48
2022/04/23 09:03:56;;;;;;;14.55;13.07;;;;;;;18.85;nan;100430.88;5031738;28;20037;-53
2022/04/23 09:06:22;;;;;;;16.77;14.68;;;;;;;18.22;nan;100470.91;5035601;28;20037;-54
2022/04/23 09:09:07;;;;;;;15.20;13.85;;;;;;;18.03;nan;100470.50;5034530;28;20038;-52
2022/04/23 09:11:35;;;;;;;15.25;13.85;;;;;;;18.33;nan;100425.69;5035833;28;20033;-52
2022/04/23 09:14:06;;;;;;;15.05;13.55;;;;;;;18.21;nan;100455.91;5034497;28;20524;-52
2022/04/23 09:25:12;;;;;;;14.65;13.40;;;;;;;18.45;nan;100472.81;5034366;28;20103;-52
2022/04/23 09:27:38;;;;;;;14.50;13.02;;;;;;;18.60;nan;100460.25;5034848;28;20469;-55
2022/04/23 09:30:08;;;;;;;15.02;13.73;;;;;;;18.92;nan;100469.44;5035241;28;20040;-53
2022/04/23 09:32:33;;;;;;;15.52;14.18;;;;;;;18.24;nan;100463.66;5033910;28;20040;-51
2022/04/23 09:35:06;;;;;;;15.52;14.23;;;;;;;17.84;nan;100465.56;5050821;28;20022;-54
2022/04/23 09:38:11;;;;;;;15.15;13.85;;;;;;;16.91;nan;100387.59;5035284;28;20036;-52
2022/04/23 09:40:21;;;;;;;16.92;15.43;;;;;;;17.42;nan;100468.44;5033798;28;20042;-51
2022/04/23 09:43:00;;;;;;;15.52;14.13;;;;;;;17.26;nan;100471.22;5034016;28;20045;-51
2022/04/23 09:45:27;;;;;;;15.43;13.98;;;;;;;17.40;nan;100465.00;5035279;28;20391;-51
2022/04/23 09:47:53;;;;;;;15.85;14.35;;;;;;;17.78;nan;100436.69;5035183;28;20069;-53
2022/04/23 09:50:18;;;;;;;14.68;13.27;;;;;;;18.30;nan;100420.59;5033682;28;20049;-51
2022/04/23 09:52:45;;;;;;;14.80;13.32;;;;;;;18.49;nan;100470.81;5050456;28;20037;-52
2022/04/23 09:55:11;;;;;;;14.85;13.55;;;;;;;17.86;nan;100468.13;5035167;28;20397;-50
2022/04/23 09:57:38;;;;;;;16.98;15.23;;;;;;;17.39;nan;100464.16;5033707;28;20033;-58
2022/04/23 10:00:07;;;;;;;16.33;14.93;;;;;;;17.03;nan;100408.06;5049568;28;20037;-55
2022/04/23 10:02:32;;;;;;;15.48;13.63;;;;;;;17.53;nan;100473.03;5034743;28;20498;-56
2022/04/23 10:05:00;;;;;;;15.02;13.63;;;;;;;17.25;nan;100440.25;5050244;28;20061;-58
2022/04/23 10:07:25;;;;;;;16.35;14.88;;;;;;;17.03;nan;100471.03;5050450;28;20085;-54
2022/04/23 10:09:51;;;;;;;15.95;14.35;;;;;;;17.10;nan;100430.66;5049977;28;20033;-49
2022/04/23 10:12:19;;;;;;;16.45;14.85;;;;;;;17.75;nan;100470.63;5050143;28;20037;-50
2022/04/23 10:15:11;;;;;;;15.73;14.25;;;;;;;18.41;nan;100463.34;5033180;28;20079;-51
2022/04/23 10:17:37;;;;;;;15.45;13.80;;;;;;;18.34;nan;100455.88;5031060;28;20463;-54
2022/04/23 10:20:03;;;;;;;16.63;14.90;;;;;;;18.79;nan;100468.63;5050190;28;20038;-58
2022/04/23 10:22:35;;;;;;;14.95;13.35;;;;;;;18.98;nan;100425.47;5034336;28;20084;-57
2022/04/23 10:25:13;;;;;;;14.82;13.52;;;;;;;19.13;nan;100447.50;5033125;28;20030;-58
2022/04/23 10:27:39;;;;;;;15.02;13.52;;;;;;;19.18;nan;100424.84;5050012;28;20034;-57
2022/04/23 10:30:06;;;;;;;14.70;13.15;;;;;;;19.37;nan;100457.22;5034394;28;20044;-50
2022/04/23 10:32:40;;;;;;;15.88;14.45;;;;;;;18.77;nan;100429.69;5033535;28;20388;-51
2022/04/23 10:35:32;;;;;;;15.50;14.00;;;;;;;18.75;nan;100459.16;5049723;28;20033;-51
2022/04/23 10:37:58;;;;;;;15.40;13.80;;;;;;;18.38;nan;100457.38;5032197;28;20362;-50
2022/04/23 10:40:24;;;;;;;15.98;14.23;;;;;;;17.96;nan;100462.06;5032862;28;20095;-55
2022/04/23 10:43:12;;;;;;;15.10;13.68;;;;;;;17.95;nan;100443.50;5034128;28;20033;-53
2022/04/23 10:45:39;;;;;;;16.48;14.88;;;;;;;17.52;nan;100391.47;5048981;28;20045;-52
2022/04/23 10:48:23;;;;;;;17.38;14.55;;;;;;;17.69;nan;100471.06;5048895;28;20120;-54
2022/04/23 10:51:02;;;;;;;17.50;15.43;;;;;;;17.59;nan;100464.66;5034007;28;20112;-53
2022/04/23 10:53:39;;;;;;;16.33;14.73;;;;;;;17.84;nan;100456.72;5033709;28;20061;-56
2022/04/23 10:56:13;;;;;;;16.73;14.88;;;;;;;18.21;nan;100450.56;5033753;28;20038;-52
2022/04/23 10:58:40;;;;;;;14.68;13.35;;;;;;;18.46;nan;100457.69;5033642;28;20419;-54
2022/04/23 11:01:20;;;;;;;15.90;14.50;;;;;;;18.57;nan;100454.25;5033773;28;20038;-54
2022/04/23 11:04:08;;;;;;;15.75;14.25;;;;;;;18.08;nan;100388.44;5032532;28;20079;-53
2022/04/23 11:12:22;;;;;;;15.95;14.40;;;;;;;20.18;nan;100441.19;5033495;28;20038;-51
2022/04/23 11:14:51;;;;;;;15.43;13.95;;;;;;;19.79;nan;100452.31;5048833;28;20116;-53
2022/04/23 11:17:33;;;;;;;17.00;15.43;;;;;;;20.19;nan;100434.88;5032116;28;20096;-55
2022/04/23 11:19:59;;;;;;;15.18;13.48;;;;;;;21.76;nan;100446.00;5033585;28;20030;-52
2022/04/23 11:22:25;;;;;;;15.27;13.88;;;;;;;22.89;nan;100434.31;5048378;28;20061;-52
2022/04/23 11:24:54;;;;;;;14.52;13.27;;;;;;;22.43;nan;100426.81;5033383;28;20044;-54
2022/04/23 11:27:29;;;;;;;15.93;14.43;;;;;;;22.48;nan;100435.28;5033083;28;20036;-53
2022/04/23 11:29:55;;;;;;;15.93;14.45;;;;;;;22.02;nan;100434.91;5048594;28;20603;-55
2022/04/23 11:32:28;;;;;;;16.52;14.93;;;;;;;21.20;nan;100429.34;5033473;28;20072;-53
2022/04/23 11:35:03;;;;;;;16.63;15.02;;;;;;;20.59;nan;100400.50;5048619;28;20037;-49
2022/04/23 11:37:32;;;;;;;15.65;14.25;;;;;;;20.38;nan;100427.13;5033074;28;20037;-54
2022/04/23 11:40:12;;;;;;;16.48;14.80;;;;;;;21.01;nan;100374.75;5048017;28;20064;-54
2022/04/23 11:42:39;;;;;;;15.57;13.88;;;;;;;22.42;nan;100379.50;5048410;28;20030;-54
2022/04/23 11:45:05;;;;;;;15.30;14.00;;;;;;;22.92;nan;100413.41;5032937;28;20090;-50
2022/04/23 11:47:31;;;;;;;15.63;14.23;;;;;;;22.66;nan;100432.84;5031640;28;20057;-52
2022/04/23 11:50:11;;;;;;;16.33;13.75;;;;;;;22.87;nan;100428.25;5032965;28;20041;-55
2022/04/23 11:52:37;;;;;;;15.13;13.63;;;;;;;22.78;nan;100429.06;5032463;28;20033;-50
2022/04/23 11:55:03;;;;;;;15.73;14.23;;;;;;;21.96;nan;100422.88;5048172;28;20124;-51